createdAt,value
2018-08-09T00:02:18.105Z,8.47
2018-08-09T00:04:45.437Z,6.47
2018-08-09T00:07:12.838Z,8.00
2018-08-09T00:09:40.178Z,7.00
2018-08-09T00:12:07.624Z,7.03
2018-08-09T00:14:34.980Z,7.67
2018-08-09T00:17:02.305Z,7.00
2018-08-09T00:19:30.102Z,7.93
2018-08-09T00:21:58.603Z,7.13
2018-08-09T00:24:26.381Z,6.50
2018-08-09T00:26:53.777Z,6.70
2018-08-09T00:29:21.138Z,7.70
2018-08-09T00:31:48.507Z,7.13
2018-08-09T00:34:15.874Z,6.10
2018-08-09T00:36:43.210Z,7.57
2018-08-09T00:39:12.378Z,7.20
2018-08-09T00:41:40.330Z,6.77
2018-08-09T00:44:07.758Z,6.97
2018-08-09T00:46:35.190Z,8.13
2018-08-09T00:49:02.578Z,8.10
2018-08-09T00:51:30.707Z,6.60
2018-08-09T00:53:59.251Z,6.30
2018-08-09T00:56:26.920Z,7.63
2018-08-09T00:58:54.563Z,7.43
2018-08-09T01:01:21.891Z,7.87
2018-08-09T01:03:49.461Z,8.67
2018-08-09T01:06:16.903Z,7.40
2018-08-09T01:08:49.713Z,7.93
2018-08-09T01:11:17.042Z,8.83
2018-08-09T01:13:44.392Z,7.07
2018-08-09T01:16:11.731Z,8.10
2018-08-09T01:18:39.120Z,8.00
2018-08-09T01:21:06.514Z,7.43
2018-08-09T01:23:33.910Z,7.50
2018-08-09T01:26:02.427Z,8.67
2018-08-09T01:28:30.830Z,8.50
2018-08-09T01:30:58.586Z,7.37
2018-08-09T01:33:26.034Z,8.03
2018-08-09T01:35:53.442Z,7.57
2018-08-09T01:38:20.816Z,7.90
2018-08-09T01:40:48.138Z,7.33
2018-08-09T01:43:21.061Z,7.17
2018-08-09T01:45:48.429Z,7.30
2018-08-09T01:48:15.786Z,7.37
2018-08-09T01:50:43.143Z,6.83
2018-08-09T01:53:10.526Z,7.90
2018-08-09T01:55:37.919Z,7.83
2018-08-09T01:58:05.295Z,7.27
2018-08-09T02:00:33.741Z,8.83
2018-08-09T02:03:02.535Z,6.37
2018-08-09T02:05:29.913Z,7.70
2018-08-09T02:07:57.273Z,7.37
2018-08-09T02:10:24.657Z,20.57
2018-08-09T02:12:52.008Z,29.50
2018-08-09T02:15:19.449Z,10.60
2018-08-09T02:17:46.800Z,9.20
2018-08-09T02:20:14.209Z,8.40
2018-08-09T02:22:41.996Z,7.57
2018-08-09T02:25:10.321Z,8.40
2018-08-09T02:27:38.508Z,7.57
2018-08-09T02:30:05.933Z,8.13
2018-08-09T02:32:33.393Z,7.40
2018-08-09T02:35:00.878Z,9.07
2018-08-09T02:37:28.210Z,8.60
2018-08-09T02:39:55.695Z,9.63
2018-08-09T02:42:23.059Z,9.07
2018-08-09T02:44:50.593Z,10.07
2018-08-09T02:47:18.643Z,8.20
2018-08-09T02:49:46.147Z,10.87
2018-08-09T02:52:13.522Z,8.33
2018-08-09T02:54:41.400Z,38.60
2018-08-09T02:57:09.913Z,12.50
2018-08-09T02:59:37.609Z,7.97
2018-08-09T03:02:05.046Z,7.50
2018-08-09T03:04:32.386Z,8.13
2018-08-09T03:06:59.790Z,7.87
2018-08-09T03:09:27.227Z,8.30
2018-08-09T03:11:54.597Z,8.67
2018-08-09T03:14:21.938Z,7.80
2018-08-09T03:16:49.483Z,8.07
2018-08-09T03:19:16.830Z,8.90
2018-08-09T03:21:44.290Z,7.20
2018-08-09T03:24:12.020Z,8.77
2018-08-09T03:26:41.615Z,7.83
2018-08-09T03:29:09.719Z,8.10
2018-08-09T03:31:37.148Z,8.63
2018-08-09T03:34:04.626Z,7.53
2018-08-09T03:36:32.006Z,8.17
2018-08-09T03:38:59.441Z,8.57
2018-08-09T03:41:26.818Z,9.33
2018-08-09T03:43:54.182Z,8.67
2018-08-09T03:46:21.717Z,11.20
2018-08-09T03:48:49.102Z,8.40
2018-08-09T03:51:16.675Z,8.40
2018-08-09T03:53:44.057Z,7.60
2018-08-09T03:56:12.912Z,8.90
2018-08-09T03:58:41.211Z,8.27
2018-08-09T04:01:09.579Z,9.20
2018-08-09T04:03:37.008Z,8.80
2018-08-09T04:06:04.419Z,8.60
2018-08-09T04:08:31.862Z,8.07
2018-08-09T04:10:59.263Z,8.70
2018-08-09T04:13:26.729Z,9.20
2018-08-09T04:15:54.143Z,9.47
2018-08-09T04:18:21.588Z,8.20
2018-08-09T04:20:48.935Z,9.90
2018-08-09T04:23:16.300Z,8.30
2018-08-09T04:25:43.827Z,9.60
2018-08-09T04:28:12.267Z,8.87
2018-08-09T04:30:40.095Z,8.40
2018-08-09T04:33:07.571Z,8.60
2018-08-09T04:35:34.898Z,9.17
2018-08-09T04:38:02.590Z,12.87
2018-08-09T04:40:29.878Z,11.87
2018-08-09T04:42:57.341Z,10.17
2018-08-09T04:45:24.767Z,8.80
2018-08-09T04:47:52.269Z,10.30
2018-08-09T04:50:19.626Z,8.30
2018-08-09T04:52:46.980Z,9.20
2018-08-09T04:55:14.534Z,9.03
2018-08-09T04:57:43.645Z,9.23
2018-08-09T05:00:12.296Z,8.67
2018-08-09T05:02:39.809Z,9.40
2018-08-09T05:05:07.264Z,9.27
2018-08-09T05:07:34.633Z,9.47
2018-08-09T05:10:07.354Z,7.60
2018-08-09T05:12:34.874Z,11.10
2018-08-09T05:15:02.402Z,9.57
2018-08-09T05:17:29.962Z,18.03
2018-08-09T05:19:57.443Z,10.53
2018-08-09T05:22:25.232Z,9.63
2018-08-09T05:24:52.814Z,7.80
2018-08-09T05:27:20.254Z,8.67
2018-08-09T05:29:47.604Z,8.67
2018-08-09T05:32:15.404Z,8.83
2018-08-09T05:34:44.426Z,8.33
2018-08-09T05:37:12.513Z,8.97
2018-08-09T05:39:39.927Z,9.20
2018-08-09T05:42:07.480Z,8.57
2018-08-09T05:44:36.460Z,9.87
2018-08-09T05:47:03.963Z,8.87
2018-08-09T05:49:31.610Z,9.70
2018-08-09T05:51:58.968Z,8.60
2018-08-09T05:54:26.899Z,8.53
2018-08-09T05:56:54.886Z,8.90
2018-08-09T05:59:22.437Z,8.10
2018-08-09T06:01:49.893Z,8.90
2018-08-09T06:04:17.473Z,8.57
2018-08-09T06:06:46.003Z,12.70
2018-08-09T06:09:14.672Z,10.70
2018-08-09T06:11:45.057Z,9.17
2018-08-09T06:14:15.145Z,8.23
2018-08-09T06:16:43.123Z,8.50
2018-08-09T06:19:10.562Z,10.17
2018-08-09T06:21:37.933Z,8.57
2018-08-09T06:24:05.364Z,7.93
2018-08-09T06:26:32.732Z,10.93
2018-08-09T06:29:00.135Z,10.87
2018-08-09T06:31:27.529Z,10.50
2018-08-09T06:33:54.901Z,10.25
2018-08-09T06:36:22.232Z,9.70
2018-08-09T06:38:49.655Z,10.03
2018-08-09T06:41:17.174Z,9.60
2018-08-09T06:43:45.595Z,10.23
2018-08-09T06:46:13.850Z,10.87
2018-08-09T06:48:41.266Z,10.83
2018-08-09T06:51:08.623Z,10.83
2018-08-09T06:53:36.003Z,10.50
2018-08-09T06:56:03.363Z,11.00
2018-08-09T06:58:30.800Z,11.17
2018-08-09T07:00:58.154Z,10.07
2018-08-09T07:03:25.537Z,10.93
2018-08-09T07:05:52.895Z,9.80
2018-08-09T07:08:20.283Z,11.00
2018-08-09T07:10:47.800Z,11.67
2018-08-09T07:13:16.268Z,11.63
2018-08-09T07:15:44.251Z,10.77
2018-08-09T07:18:11.698Z,11.07
2018-08-09T07:20:39.070Z,10.10
2018-08-09T07:23:06.415Z,11.57
2018-08-09T07:25:33.799Z,11.80
2018-08-09T07:28:01.142Z,9.80
2018-08-09T07:30:28.518Z,9.63
2018-08-09T07:32:55.879Z,8.57
2018-08-09T07:35:23.256Z,8.80
2018-08-09T07:37:50.621Z,9.70
2018-08-09T07:40:18.146Z,8.93
2018-08-09T07:42:46.992Z,8.43
2018-08-09T07:45:15.159Z,8.40
2018-08-09T07:47:42.594Z,8.07
2018-08-09T07:50:10.460Z,8.33
2018-08-09T07:52:37.904Z,7.83
2018-08-09T07:55:06.125Z,8.70
2018-08-09T07:57:33.504Z,8.40
2018-08-09T08:00:00.858Z,8.13
2018-08-09T08:02:28.259Z,6.70
2018-08-09T08:04:55.621Z,8.20
2018-08-09T08:07:22.958Z,8.00
2018-08-09T08:09:50.337Z,8.07
2018-08-09T08:12:18.069Z,8.07
2018-08-09T08:14:46.452Z,7.93
2018-08-09T08:17:13.967Z,7.57
2018-08-09T08:19:41.414Z,9.47
2018-08-09T08:22:08.797Z,6.87
2018-08-09T08:24:36.180Z,7.90
2018-08-09T08:27:03.573Z,6.63
2018-08-09T08:29:30.933Z,6.67
2018-08-09T08:31:58.272Z,6.53
2018-08-09T08:34:25.655Z,7.73
2018-08-09T08:36:53.017Z,6.90
2018-08-09T08:39:20.403Z,8.37
2018-08-09T08:41:48.570Z,7.63
2018-08-09T08:44:16.759Z,6.90
2018-08-09T08:46:44.280Z,8.47
2018-08-09T08:49:11.689Z,7.93
2018-08-09T08:51:39.113Z,8.00
2018-08-09T08:54:06.576Z,7.80
2018-08-09T08:56:33.959Z,7.37
2018-08-09T08:59:01.282Z,6.17
2018-08-09T09:01:28.718Z,6.80
2018-08-09T09:03:56.057Z,5.60
2018-08-09T09:06:23.427Z,6.07
2018-08-09T09:08:50.796Z,6.00
2018-08-09T09:11:18.173Z,6.93
2018-08-09T09:13:45.655Z,7.60
2018-08-09T09:16:13.009Z,7.63
2018-08-09T09:18:40.789Z,4.83
2018-08-09T09:21:09.278Z,6.13
2018-08-09T09:23:36.963Z,6.27
2018-08-09T09:26:04.515Z,7.43
2018-08-09T09:28:31.851Z,7.70
2018-08-09T09:30:59.232Z,5.97
2018-08-09T09:33:26.579Z,6.47
2018-08-09T09:35:53.966Z,7.47
2018-08-09T09:38:21.333Z,6.47
2018-08-09T09:40:48.689Z,4.93
2018-08-09T09:43:16.019Z,7.10
2018-08-09T09:45:43.400Z,7.13
2018-08-09T09:48:11.177Z,7.60
2018-08-09T09:50:39.707Z,5.40
2018-08-09T09:53:07.374Z,5.97
2018-08-09T09:55:34.790Z,7.40
2018-08-09T09:58:02.141Z,5.40
2018-08-09T10:00:34.173Z,6.47
2018-08-09T10:03:01.509Z,6.80
2018-08-09T10:05:28.860Z,5.40
2018-08-09T10:07:56.213Z,9.50
2018-08-09T10:10:23.645Z,5.80
2018-08-09T10:12:51.049Z,6.27
2018-08-09T10:15:18.404Z,8.63
2018-08-09T10:17:45.763Z,5.53
2018-08-09T10:20:13.097Z,6.50
2018-08-09T10:22:41.186Z,8.03
2018-08-09T10:25:09.438Z,6.60
2018-08-09T10:27:37.001Z,7.10
2018-08-09T10:30:05.061Z,5.10
2018-08-09T10:32:32.507Z,6.67
2018-08-09T10:34:59.865Z,5.37
2018-08-09T10:37:27.231Z,7.13
2018-08-09T10:39:54.575Z,6.23
2018-08-09T10:42:21.945Z,5.40
2018-08-09T10:44:49.273Z,5.17
2018-08-09T10:47:17.523Z,7.10
2018-08-09T10:49:44.849Z,5.73
2018-08-09T10:52:12.449Z,4.10
2018-08-09T10:54:40.901Z,5.10
2018-08-09T10:57:08.746Z,6.10
2018-08-09T10:59:36.387Z,7.90
2018-08-09T11:02:03.765Z,5.07
2018-08-09T11:04:31.089Z,7.07
2018-08-09T11:06:58.494Z,5.40
2018-08-09T11:09:25.826Z,5.20
2018-08-09T11:11:53.200Z,5.00
2018-08-09T11:14:20.526Z,6.40
2018-08-09T11:16:47.965Z,5.40
2018-08-09T11:19:15.363Z,6.70
2018-08-09T11:21:42.914Z,4.80
2018-08-09T11:24:11.318Z,5.70
2018-08-09T11:26:39.465Z,6.60
2018-08-09T11:29:06.876Z,5.53
2018-08-09T11:31:34.223Z,6.80
2018-08-09T11:34:01.615Z,6.50
2018-08-09T11:36:28.934Z,4.80
2018-08-09T11:38:56.352Z,4.97
2018-08-09T11:41:23.687Z,6.57
2018-08-09T11:43:51.049Z,6.90
2018-08-09T11:46:18.931Z,5.20
2018-08-09T11:48:46.277Z,3.83
2018-08-09T11:51:13.733Z,4.93
2018-08-09T11:53:42.044Z,4.50
2018-08-09T11:56:10.009Z,6.83
2018-08-09T11:58:37.388Z,5.13
2018-08-09T12:01:04.731Z,7.00
2018-08-09T12:03:32.134Z,6.00
2018-08-09T12:05:59.464Z,5.40
2018-08-09T12:08:26.820Z,5.43
2018-08-09T12:10:54.158Z,6.13
2018-08-09T12:13:21.576Z,5.30
2018-08-09T12:15:48.958Z,6.93
2018-08-09T12:18:16.343Z,8.00
2018-08-09T12:20:43.911Z,7.10
2018-08-09T12:23:12.446Z,5.07
2018-08-09T12:25:40.387Z,7.63
2018-08-09T12:28:08.021Z,6.40
2018-08-09T12:30:35.575Z,7.03
2018-08-09T12:33:02.996Z,7.00
2018-08-09T12:35:30.381Z,6.20
2018-08-09T12:37:57.757Z,4.70
2018-08-09T12:40:25.099Z,6.97
2018-08-09T12:42:52.516Z,4.40
2018-08-09T12:45:19.956Z,5.80
2018-08-09T12:47:47.294Z,5.17
2018-08-09T12:50:14.979Z,3.70
2018-08-09T12:52:43.977Z,5.07
2018-08-09T12:55:12.899Z,5.00
2018-08-09T12:57:40.712Z,6.67
2018-08-09T13:00:09.391Z,4.87
2018-08-09T13:02:36.826Z,3.77
2018-08-09T13:05:04.444Z,4.50
2018-08-09T13:07:31.804Z,5.40
2018-08-09T13:09:59.173Z,4.73
2018-08-09T13:12:26.521Z,7.83
2018-08-09T13:14:53.894Z,6.03
2018-08-09T13:17:21.291Z,7.70
2018-08-09T13:19:48.953Z,10.47
2018-08-09T13:22:16.300Z,6.53
2018-08-09T13:24:44.327Z,5.17
2018-08-09T13:27:12.570Z,5.60
2018-08-09T13:29:40.022Z,5.03
2018-08-09T13:32:07.435Z,4.73
2018-08-09T13:34:34.795Z,6.80
2018-08-09T13:37:02.174Z,4.17
2018-08-09T13:39:29.547Z,4.83
2018-08-09T13:41:56.874Z,4.33
2018-08-09T13:44:24.253Z,3.97
2018-08-09T13:46:51.616Z,4.03
2018-08-09T13:49:19.015Z,3.70
2018-08-09T13:51:46.354Z,3.20
2018-08-09T13:54:14.719Z,2.97
2018-08-09T13:56:42.834Z,3.20
2018-08-09T13:59:10.227Z,3.30
2018-08-09T14:01:37.578Z,3.90
2018-08-09T14:04:04.976Z,3.87
2018-08-09T14:06:32.356Z,4.00
2018-08-09T14:08:59.747Z,3.47
2018-08-09T14:11:27.162Z,3.47
2018-08-09T14:13:54.546Z,5.37
2018-08-09T14:16:21.930Z,4.40
2018-08-09T14:18:49.303Z,4.83
2018-08-09T14:21:16.750Z,4.50
2018-08-09T14:23:45.246Z,4.00
2018-08-09T14:26:13.289Z,5.10
2018-08-09T14:28:40.949Z,4.57
2018-08-09T14:31:08.648Z,4.67
2018-08-09T14:33:36.049Z,4.73
2018-08-09T14:36:03.463Z,4.40
2018-08-09T14:38:31.086Z,5.20
2018-08-09T14:40:58.801Z,4.63
2018-08-09T14:43:26.610Z,4.20
2018-08-09T14:45:54.348Z,4.20
2018-08-09T14:48:22.300Z,3.90
2018-08-09T14:50:50.126Z,4.30
2018-08-09T14:53:17.737Z,4.47
2018-08-09T14:55:46.358Z,3.80
2018-08-09T14:58:15.184Z,3.30
2018-08-09T15:00:43.224Z,4.83
2018-08-09T15:03:10.863Z,3.80
2018-08-09T15:05:38.562Z,4.17
2018-08-09T15:08:06.142Z,3.30
2018-08-09T15:10:33.525Z,3.00
2018-08-09T15:13:00.914Z,3.43
2018-08-09T15:15:28.322Z,3.60
2018-08-09T15:17:55.704Z,3.77
2018-08-09T15:20:23.059Z,3.53
2018-08-09T15:22:50.415Z,4.23
2018-08-09T15:25:17.863Z,3.60
2018-08-09T15:27:46.077Z,4.40
2018-08-09T15:30:16.496Z,3.23
2018-08-09T15:32:44.779Z,3.63
2018-08-09T15:35:12.444Z,3.43
2018-08-09T15:37:39.864Z,33.70
2018-08-09T15:40:08.035Z,4.40
2018-08-09T15:42:35.439Z,4.50
2018-08-09T15:45:02.888Z,3.80
2018-08-09T15:47:30.338Z,3.57
2018-08-09T15:49:57.623Z,3.60
2018-08-09T15:52:24.963Z,3.57
2018-08-09T15:54:52.389Z,3.90
2018-08-09T15:57:19.772Z,3.83
2018-08-09T15:59:47.457Z,3.40
2018-08-09T16:02:15.929Z,3.40
2018-08-09T16:04:43.370Z,4.13
2018-08-09T16:07:10.841Z,2.73
2018-08-09T16:09:38.249Z,3.30
2018-08-09T16:12:05.660Z,3.57
2018-08-09T16:14:32.998Z,3.53
2018-08-09T16:17:00.363Z,2.60
2018-08-09T16:19:27.684Z,3.50
2018-08-09T16:21:55.089Z,2.90
2018-08-09T16:24:22.435Z,3.37
2018-08-09T16:26:49.800Z,4.03
2018-08-09T16:29:17.745Z,2.70
2018-08-09T16:31:46.019Z,3.47
2018-08-09T16:34:13.435Z,2.47
2018-08-09T16:36:40.791Z,2.90
2018-08-09T16:39:08.961Z,3.63
2018-08-09T16:41:36.354Z,4.23
2018-08-09T16:44:03.766Z,3.23
2018-08-09T16:46:31.277Z,3.57
2018-08-09T16:48:58.613Z,2.97
2018-08-09T16:51:25.977Z,3.80
2018-08-09T16:53:53.323Z,3.37
2018-08-09T16:56:20.961Z,2.97
2018-08-09T16:58:49.102Z,2.80
2018-08-09T17:01:17.469Z,12.40
2018-08-09T17:03:45.122Z,5.10
2018-08-09T17:06:12.845Z,3.80
2018-08-09T17:08:40.213Z,3.57
2018-08-09T17:11:07.590Z,4.20
2018-08-09T17:13:34.962Z,3.40
2018-08-09T17:16:03.006Z,3.47
2018-08-09T17:18:30.412Z,4.50
2018-08-09T17:20:57.834Z,4.10
2018-08-09T17:23:25.243Z,3.60
2018-08-09T17:25:52.617Z,3.20
2018-08-09T17:28:20.584Z,2.73
2018-08-09T17:30:48.931Z,4.50
2018-08-09T17:33:16.860Z,4.57
2018-08-09T17:35:44.288Z,3.93
2018-08-09T17:38:11.695Z,4.30
2018-08-09T17:40:39.087Z,3.93
2018-08-09T17:43:06.505Z,4.13
2018-08-09T17:45:34.258Z,3.83
2018-08-09T17:48:01.799Z,4.07
2018-08-09T17:50:29.234Z,3.47
2018-08-09T17:52:57.549Z,3.73
2018-08-09T17:55:24.943Z,4.30
2018-08-09T17:57:52.430Z,3.73
2018-08-09T18:00:22.534Z,3.90
2018-08-09T18:02:50.788Z,3.90
2018-08-09T18:05:19.208Z,3.80
2018-08-09T18:07:46.801Z,3.83
2018-08-09T18:10:15.711Z,3.77
2018-08-09T18:12:43.126Z,20.90
2018-08-09T18:15:10.504Z,7.97
2018-08-09T18:17:37.895Z,4.77
2018-08-09T18:20:07.666Z,4.07
2018-08-09T18:22:35.086Z,4.10
2018-08-09T18:25:02.422Z,4.03
2018-08-09T18:27:29.859Z,3.53
2018-08-09T18:29:57.224Z,4.10
2018-08-09T18:32:24.632Z,4.30
2018-08-09T18:34:52.241Z,5.00
2018-08-09T18:37:20.674Z,5.40
2018-08-09T18:39:48.560Z,4.13
2018-08-09T18:42:16.015Z,4.37
2018-08-09T18:44:43.523Z,4.87
2018-08-09T18:47:10.893Z,4.40
2018-08-09T18:49:38.289Z,3.60
2018-08-09T18:52:05.663Z,5.10
2018-08-09T18:54:33.052Z,4.37
2018-08-09T18:57:00.419Z,4.13
2018-08-09T18:59:27.836Z,4.00
2018-08-09T19:01:55.179Z,5.03
2018-08-09T19:04:22.911Z,4.90
2018-08-09T19:06:51.210Z,4.00
2018-08-09T19:09:19.179Z,3.80
2018-08-09T19:11:46.622Z,4.07
2018-08-09T19:14:13.995Z,4.10
2018-08-09T19:16:41.492Z,4.00
2018-08-09T19:19:08.885Z,3.50
2018-08-09T19:21:36.239Z,2.80
2018-08-09T19:24:03.658Z,3.97
2018-08-09T19:26:31.004Z,3.30
2018-08-09T19:28:58.478Z,3.57
2018-08-09T19:31:25.835Z,3.07
2018-08-09T19:33:53.618Z,3.20
2018-08-09T19:36:22.104Z,3.40
2018-08-09T19:38:50.028Z,4.20
2018-08-09T19:41:17.650Z,3.33
2018-08-09T19:43:45.042Z,3.50
2018-08-09T19:46:12.442Z,3.07
2018-08-09T19:48:39.901Z,2.83
2018-08-09T19:51:07.258Z,3.37
2018-08-09T19:53:34.699Z,2.80
2018-08-09T19:56:02.102Z,3.13
2018-08-09T19:58:29.542Z,2.43
2018-08-09T20:00:56.958Z,3.27
2018-08-09T20:03:24.462Z,2.90
2018-08-09T20:05:52.859Z,2.40
2018-08-09T20:08:20.628Z,2.40
2018-08-09T20:10:48.112Z,2.77
2018-08-09T20:13:15.594Z,2.53
2018-08-09T20:15:42.957Z,3.10
2018-08-09T20:18:10.306Z,2.67
2018-08-09T20:20:37.733Z,2.83
2018-08-09T20:23:05.109Z,2.23
2018-08-09T20:25:32.509Z,3.20
2018-08-09T20:27:59.891Z,2.23
2018-08-09T20:30:27.258Z,2.50
2018-08-09T20:32:54.951Z,2.33
2018-08-09T20:35:24.271Z,2.30
2018-08-09T20:37:52.678Z,2.50
2018-08-09T20:40:22.407Z,3.00
2018-08-09T20:42:51.175Z,2.73
2018-08-09T20:45:19.913Z,2.57
2018-08-09T20:47:47.318Z,2.37
2018-08-09T20:50:16.422Z,2.20
2018-08-09T20:52:44.620Z,2.17
2018-08-09T20:55:12.031Z,2.27
2018-08-09T20:57:40.363Z,2.30
2018-08-09T21:00:11.794Z,2.33
2018-08-09T21:02:39.383Z,2.33
2018-08-09T21:05:06.804Z,2.50
2018-08-09T21:07:34.203Z,2.53
2018-08-09T21:10:01.647Z,2.60
2018-08-09T21:12:29.070Z,2.30
2018-08-09T21:14:56.577Z,2.20
2018-08-09T21:17:24.830Z,2.20
2018-08-09T21:19:52.770Z,2.30
2018-08-09T21:22:20.179Z,1.80
2018-08-09T21:24:47.528Z,2.20
2018-08-09T21:27:14.898Z,2.27
2018-08-09T21:29:42.250Z,2.20
2018-08-09T21:32:09.624Z,1.80
2018-08-09T21:34:36.957Z,2.77
2018-08-09T21:37:04.358Z,2.30
2018-08-09T21:39:31.693Z,2.20
2018-08-09T21:41:59.065Z,3.40
2018-08-09T21:44:26.719Z,1.83
2018-08-09T21:46:55.195Z,2.07
2018-08-09T21:49:22.975Z,2.20
2018-08-09T21:51:50.394Z,1.47
2018-08-09T21:54:17.760Z,2.13
2018-08-09T21:56:45.129Z,1.87
2018-08-09T21:59:12.553Z,1.73
2018-08-09T22:01:39.951Z,1.90
2018-08-09T22:04:07.303Z,2.00
2018-08-09T22:06:39.879Z,1.77
2018-08-09T22:09:13.698Z,2.73
2018-08-09T22:11:46.364Z,2.07
2018-08-09T22:14:19.198Z,1.53
2018-08-09T22:16:51.974Z,1.60
2018-08-09T22:19:25.033Z,2.00
2018-08-09T22:21:57.734Z,1.53
2018-08-09T22:24:26.858Z,1.47
2018-08-09T22:26:54.774Z,1.77
2018-08-09T22:29:22.186Z,1.63
2018-08-09T22:31:49.613Z,1.70
2018-08-09T22:34:16.955Z,2.07
2018-08-09T22:36:44.544Z,1.47
2018-08-09T22:39:11.919Z,1.60
2018-08-09T22:41:39.296Z,2.00
2018-08-09T22:44:06.642Z,1.50
2018-08-09T22:46:34.102Z,1.50
2018-08-09T22:49:01.470Z,2.27
2018-08-09T22:51:29.109Z,2.10
2018-08-09T22:53:57.553Z,1.73
2018-08-09T22:56:25.396Z,1.50
2018-08-09T22:58:52.845Z,1.63
2018-08-09T23:01:20.194Z,1.97
2018-08-09T23:03:47.816Z,1.50
2018-08-09T23:06:15.204Z,1.60
2018-08-09T23:08:42.622Z,1.10
2018-08-09T23:11:10.008Z,1.10
2018-08-09T23:13:37.375Z,1.40
2018-08-09T23:16:05.161Z,1.20
2018-08-09T23:18:32.542Z,0.90
2018-08-09T23:21:00.277Z,1.30
2018-08-09T23:23:28.590Z,0.87
2018-08-09T23:25:56.431Z,1.50
2018-08-09T23:28:23.887Z,1.33
2018-08-09T23:30:51.298Z,1.33
2018-08-09T23:33:21.239Z,1.20
2018-08-09T23:35:48.743Z,1.00
2018-08-09T23:38:16.113Z,1.20
2018-08-09T23:40:43.537Z,1.17
2018-08-09T23:43:11.098Z,1.00
2018-08-09T23:45:38.442Z,1.23
2018-08-09T23:48:06.151Z,1.20
2018-08-09T23:50:33.563Z,1.17
2018-08-09T23:53:01.418Z,1.00
2018-08-09T23:55:29.857Z,1.40
2018-08-09T23:58:00.621Z,1.37
